createdAt,value
2023-05-14T00:00:17.429Z,8.1
2023-05-14T00:01:33.716Z,8.1
2023-05-14T00:02:50.020Z,9.5
2023-05-14T00:04:06.320Z,8.5
2023-05-14T00:05:22.601Z,8.6
2023-05-14T00:06:38.906Z,8.2
2023-05-14T00:07:55.190Z,8.2
2023-05-14T00:09:11.477Z,8.4
2023-05-14T00:10:27.775Z,9.4
2023-05-14T00:11:44.082Z,8.8
2023-05-14T00:13:00.374Z,9.1
2023-05-14T00:14:16.658Z,8.1
2023-05-14T00:15:32.959Z,8.9
2023-05-14T00:16:48.276Z,8.4
2023-05-14T00:18:04.565Z,9.5
2023-05-14T00:19:20.864Z,10.1
2023-05-14T00:20:37.154Z,8.8
2023-05-14T00:21:53.439Z,7.6
2023-05-14T00:23:09.731Z,7.9
2023-05-14T00:24:26.027Z,8.4
2023-05-14T00:25:42.322Z,8.8
2023-05-14T00:26:58.625Z,9.3
2023-05-14T00:28:14.912Z,9.6
2023-05-14T00:29:31.214Z,8.8
2023-05-14T00:30:47.508Z,9.4
2023-05-14T00:32:03.791Z,8.5
2023-05-14T00:33:19.097Z,8.9
2023-05-14T00:34:35.397Z,8.2
2023-05-14T00:35:51.697Z,8.7
2023-05-14T00:37:07.989Z,8.6
2023-05-14T00:38:24.282Z,7.8
2023-05-14T00:39:40.580Z,9
2023-05-14T00:40:56.871Z,8.2
2023-05-14T00:42:13.154Z,9.6
2023-05-14T00:43:29.449Z,7.8
2023-05-14T00:44:45.755Z,10.5
2023-05-14T00:46:02.045Z,9.3
2023-05-14T00:47:18.338Z,8
2023-05-14T00:48:34.620Z,7.8
2023-05-14T00:49:49.936Z,9.2
2023-05-14T00:51:06.220Z,8.2
2023-05-14T00:52:22.527Z,8.7
2023-05-14T00:53:38.817Z,8.3
2023-05-14T00:54:55.119Z,8.5
2023-05-14T00:56:11.408Z,8.3
2023-05-14T00:57:27.706Z,8.6
2023-05-14T00:58:43.986Z,8.3
2023-05-14T01:00:00.286Z,9.3
2023-05-14T01:01:16.577Z,10.1
2023-05-14T01:02:32.867Z,10.5
2023-05-14T01:03:49.166Z,8.2
2023-05-14T01:05:05.469Z,9.2
2023-05-14T01:06:20.777Z,8.6
2023-05-14T01:07:37.070Z,9.5
2023-05-14T01:08:53.352Z,9.3
2023-05-14T01:10:09.649Z,8.4
2023-05-14T01:11:25.936Z,8.2
2023-05-14T01:12:42.242Z,8.9
2023-05-14T01:13:58.536Z,8
2023-05-14T01:15:14.817Z,8.9
2023-05-14T01:16:31.113Z,9.4
2023-05-14T01:17:47.421Z,9.8
2023-05-14T01:19:03.716Z,8.8
2023-05-14T01:20:20.006Z,8.9
2023-05-14T01:21:36.297Z,10.1
2023-05-14T01:22:51.601Z,9.3
2023-05-14T01:24:07.899Z,8.7
2023-05-14T01:25:24.198Z,8.9
2023-05-14T01:26:40.483Z,8.9
2023-05-14T01:27:56.777Z,8.6
2023-05-14T01:29:13.064Z,10
2023-05-14T01:30:29.377Z,9.2
2023-05-14T01:31:45.656Z,8.7
2023-05-14T01:33:01.958Z,9.6
2023-05-14T01:34:18.260Z,9
2023-05-14T01:35:34.558Z,8.9
2023-05-14T01:36:50.847Z,8.9
2023-05-14T01:38:07.136Z,9.3
2023-05-14T01:39:22.435Z,8.7
2023-05-14T01:40:38.737Z,9.7
2023-05-14T01:41:55.029Z,10.8
2023-05-14T01:43:11.326Z,9.7
2023-05-14T01:44:27.611Z,8.7
2023-05-14T01:45:43.904Z,9.9
2023-05-14T01:47:00.209Z,10.1
2023-05-14T01:48:16.488Z,11.1
2023-05-14T01:49:32.795Z,9.8
2023-05-14T01:50:49.079Z,9.3
2023-05-14T01:52:05.384Z,9.7
2023-05-14T01:53:21.673Z,10.1
2023-05-14T01:54:37.969Z,8.5
2023-05-14T01:55:53.284Z,9
2023-05-14T01:57:09.578Z,10.3
2023-05-14T01:58:25.861Z,10.4
2023-05-14T01:59:42.156Z,9.5
2023-05-14T02:00:58.448Z,11.1
2023-05-14T02:02:14.749Z,9.2
2023-05-14T02:03:31.051Z,8.3
2023-05-14T02:04:47.340Z,10.6
2023-05-14T02:06:03.627Z,8.8
2023-05-14T02:07:19.913Z,9
2023-05-14T02:08:36.214Z,9.5
2023-05-14T02:09:52.506Z,9.5
2023-05-14T02:11:08.806Z,9.4
2023-05-14T02:12:24.119Z,10
2023-05-14T02:13:40.408Z,9.5
2023-05-14T02:14:56.691Z,9.5
2023-05-14T02:16:13.000Z,9.4
2023-05-14T02:17:29.298Z,9.9
2023-05-14T02:18:44.599Z,9.1
2023-05-14T02:20:00.890Z,9.5
2023-05-14T02:21:17.192Z,10.2
2023-05-14T02:22:33.495Z,11
2023-05-14T02:23:49.770Z,9.9
2023-05-14T02:25:06.073Z,10.7
2023-05-14T02:26:22.357Z,10.7
2023-05-14T02:27:38.668Z,10.7
2023-05-14T02:28:54.953Z,10.7
2023-05-14T02:30:11.255Z,9.8
2023-05-14T02:31:27.536Z,11.8
2023-05-14T02:32:43.837Z,11.5
2023-05-14T02:34:00.134Z,10.1
2023-05-14T02:35:15.450Z,9.8
2023-05-14T02:36:31.740Z,11.6
2023-05-14T02:37:48.026Z,9.1
2023-05-14T02:39:04.312Z,10.7
2023-05-14T02:40:20.614Z,9.1
2023-05-14T02:41:36.898Z,9.7
2023-05-14T02:42:53.190Z,9.9
2023-05-14T02:45:25.793Z,11
2023-05-14T02:46:42.089Z,9.8
2023-05-14T02:47:58.316Z,10.4
2023-05-14T02:49:14.619Z,9.2
2023-05-14T02:50:30.912Z,10.3
2023-05-14T02:51:46.175Z,10.1
2023-05-14T02:53:02.408Z,10.3
2023-05-14T02:54:18.715Z,10.3
2023-05-14T02:55:34.999Z,10.6
2023-05-14T02:56:51.253Z,10.8
2023-05-14T02:58:07.486Z,10.3
2023-05-14T02:59:23.746Z,10.9
2023-05-14T03:00:40.031Z,9.8
2023-05-14T03:01:56.339Z,10.5
2023-05-14T03:03:12.589Z,9.6
2023-05-14T03:04:28.815Z,10.8
2023-05-14T03:07:01.298Z,9.5
2023-05-14T03:08:16.570Z,11.8
2023-05-14T03:09:32.791Z,9.9
2023-05-14T03:10:49.042Z,9
2023-05-14T03:12:05.270Z,9.8
2023-05-14T03:13:21.513Z,9.8
2023-05-14T03:14:37.751Z,10.5
2023-05-14T03:15:53.994Z,11.1
2023-05-14T03:17:10.243Z,9.8
2023-05-14T03:18:26.479Z,9.1
2023-05-14T03:20:58.961Z,10.5
2023-05-14T03:22:15.191Z,9.9
2023-05-14T03:23:31.449Z,9.3
2023-05-14T03:24:46.701Z,9.6
2023-05-14T03:26:02.930Z,10.1
2023-05-14T03:27:19.172Z,9.3
2023-05-14T03:29:51.666Z,10
2023-05-14T03:31:06.923Z,9.7
2023-05-14T03:32:22.172Z,10.6
2023-05-14T03:33:38.418Z,9.2
2023-05-14T03:34:54.644Z,10.1
2023-05-14T03:36:10.899Z,9.6
2023-05-14T03:37:27.130Z,10.5
2023-05-14T03:38:43.379Z,10
2023-05-14T03:39:59.617Z,9.4
2023-05-14T03:41:15.855Z,10.6
2023-05-14T03:42:32.102Z,10.7
2023-05-14T03:43:47.355Z,9.6
2023-05-14T03:45:02.615Z,9.8
2023-05-14T03:46:18.844Z,9.4
2023-05-14T03:47:35.089Z,10.4
2023-05-14T03:48:51.336Z,10.5
2023-05-14T03:50:07.572Z,10.1
2023-05-14T03:51:23.810Z,10.3
2023-05-14T03:52:40.041Z,10.8
2023-05-14T03:53:56.288Z,9.5
2023-05-14T03:55:12.537Z,10.3
2023-05-14T03:56:28.761Z,10.2
2023-05-14T03:57:45.008Z,9.4
2023-05-14T03:59:01.252Z,9.7
2023-05-14T04:00:17.497Z,11.1
2023-05-14T04:01:32.753Z,11.2
2023-05-14T04:02:48.992Z,9.4
2023-05-14T04:04:05.235Z,11.7
2023-05-14T04:05:21.470Z,9.9
2023-05-14T04:06:37.699Z,9.1
2023-05-14T04:07:53.939Z,8.9
2023-05-14T04:09:10.189Z,9
2023-05-14T04:11:42.658Z,10.5
2023-05-14T04:12:58.909Z,10.7
2023-05-14T04:14:15.143Z,9
2023-05-14T04:15:31.389Z,10.9
2023-05-14T04:16:47.621Z,9.6
2023-05-14T04:18:02.869Z,9.8
2023-05-14T04:19:19.110Z,9.7
2023-05-14T04:20:35.355Z,10.4
2023-05-14T04:21:51.599Z,9.5
2023-05-14T04:23:07.847Z,10.8
2023-05-14T04:24:24.082Z,9
2023-05-14T04:25:40.312Z,8.8
2023-05-14T04:26:56.561Z,10.4
2023-05-14T04:28:12.797Z,11
2023-05-14T04:29:29.030Z,9.8
2023-05-14T04:30:45.281Z,9.4
2023-05-14T04:32:01.525Z,10.6
2023-05-14T04:33:17.751Z,10.7
2023-05-14T04:34:33.011Z,10
2023-05-14T04:35:49.255Z,8.8
2023-05-14T04:37:05.486Z,9.9
2023-05-14T04:38:21.738Z,10.2
2023-05-14T04:39:37.980Z,8.7
2023-05-14T04:40:54.207Z,10.1
2023-05-14T04:42:10.460Z,10.4
2023-05-14T04:43:26.687Z,10.4
2023-05-14T04:44:42.925Z,9.1
2023-05-14T04:45:59.164Z,10.1
2023-05-14T04:47:15.419Z,10.4
2023-05-14T04:48:31.649Z,10.9
2023-05-14T04:49:47.000Z,8.9
2023-05-14T04:51:03.153Z,10
2023-05-14T04:52:19.391Z,9.4
2023-05-14T04:53:35.628Z,9.5
2023-05-14T04:54:51.864Z,9.5
2023-05-14T04:56:08.119Z,9.5
2023-05-14T04:57:24.349Z,10.3
2023-05-14T04:58:40.586Z,9.7
2023-05-14T04:59:56.816Z,8.9
2023-05-14T05:01:13.078Z,10.3
2023-05-14T05:02:29.305Z,9.3
2023-05-14T05:03:45.534Z,9.6
2023-05-14T05:05:01.776Z,8.7
2023-05-14T05:06:18.027Z,9.4
2023-05-14T05:07:33.272Z,10.2
2023-05-14T05:08:49.527Z,10.2
2023-05-14T05:10:05.753Z,9.2
2023-05-14T05:11:22.005Z,10.7
2023-05-14T05:12:38.229Z,10.6
2023-05-14T05:13:54.488Z,9.9
2023-05-14T05:15:10.711Z,10.6
2023-05-14T05:16:26.961Z,10.2
2023-05-14T05:17:43.203Z,11.9
2023-05-14T05:18:59.429Z,9.9
2023-05-14T05:20:15.668Z,10.3
2023-05-14T05:21:31.915Z,10.8
2023-05-14T05:22:48.161Z,10.8
2023-05-14T05:24:03.402Z,11.9
2023-05-14T05:25:19.661Z,9.9
2023-05-14T05:26:35.903Z,9.5
2023-05-14T05:27:52.128Z,10.9
2023-05-14T05:29:08.381Z,9.8
2023-05-14T05:30:24.605Z,9.9
2023-05-14T05:31:40.861Z,11
2023-05-14T05:32:57.086Z,10.3
2023-05-14T05:34:13.333Z,10
2023-05-14T05:35:29.573Z,10
2023-05-14T05:36:45.802Z,9.3
2023-05-14T05:38:02.052Z,10.3
2023-05-14T05:39:18.294Z,10.7
2023-05-14T05:40:33.541Z,12
2023-05-14T05:41:49.778Z,10.2
2023-05-14T05:43:06.034Z,9.8
2023-05-14T05:44:22.270Z,11
2023-05-14T05:45:38.498Z,9
2023-05-14T05:46:54.742Z,10.7
2023-05-14T05:48:10.986Z,10.4
2023-05-14T05:49:27.216Z,9.9
2023-05-14T05:50:43.462Z,10.2
2023-05-14T05:51:59.710Z,11.2
2023-05-14T05:53:15.952Z,10.5
2023-05-14T05:54:32.175Z,9.3
2023-05-14T05:55:48.420Z,10.3
2023-05-14T05:57:03.681Z,11.3
2023-05-14T05:58:19.928Z,10.9
2023-05-14T06:00:52.392Z,10.5
2023-05-14T06:02:08.636Z,10.3
2023-05-14T06:03:24.878Z,11.4
2023-05-14T06:04:41.115Z,10.2
2023-05-14T06:05:57.353Z,11.2
2023-05-14T06:07:13.606Z,10.9
2023-05-14T06:08:29.845Z,10.1
2023-05-14T06:09:46.075Z,9.3
2023-05-14T06:11:02.320Z,9.3
2023-05-14T06:12:18.549Z,10.5
2023-05-14T06:13:33.820Z,10.2
2023-05-14T06:14:50.047Z,8.9
2023-05-14T06:16:06.289Z,10.1
2023-05-14T06:17:22.530Z,10.1
2023-05-14T06:18:38.771Z,10.8
2023-05-14T06:19:55.005Z,9.9
2023-05-14T06:21:11.248Z,9.5
2023-05-14T06:22:27.485Z,9.5
2023-05-14T06:23:43.741Z,11.3
2023-05-14T06:24:59.970Z,10.7
2023-05-14T06:26:16.203Z,10.9
2023-05-14T06:27:32.448Z,9.8
2023-05-14T06:28:48.687Z,9.9
2023-05-14T06:30:03.944Z,9.6
2023-05-14T06:31:20.185Z,10.6
2023-05-14T06:32:36.417Z,10.1
2023-05-14T06:33:51.697Z,9.6
2023-05-14T06:35:07.924Z,8.7
2023-05-14T06:36:24.171Z,10.1
2023-05-14T06:37:40.401Z,10
2023-05-14T06:38:56.644Z,9.8
2023-05-14T06:40:12.896Z,10.9
2023-05-14T06:41:29.118Z,8
2023-05-14T06:42:45.359Z,9
2023-05-14T06:44:01.605Z,9.2
2023-05-14T06:45:17.845Z,8.6
2023-05-14T06:46:34.094Z,9.3
2023-05-14T06:47:50.316Z,10.5
2023-05-14T06:49:06.561Z,9.1
2023-05-14T06:50:21.810Z,8.9
2023-05-14T06:51:38.063Z,9
2023-05-14T06:52:54.294Z,8.8
2023-05-14T06:54:10.536Z,8.7
2023-05-14T06:55:26.786Z,8.6
2023-05-14T06:56:43.017Z,8.6
2023-05-14T06:57:59.250Z,9.4
2023-05-14T06:59:15.502Z,10.7
2023-05-14T07:00:31.742Z,8.7
2023-05-14T07:01:47.975Z,8.6
2023-05-14T07:03:04.208Z,9.6
2023-05-14T07:04:20.452Z,8.4
2023-05-14T07:05:36.706Z,8.2
2023-05-14T07:06:51.956Z,8.4
2023-05-14T07:08:08.202Z,7.4
2023-05-14T07:09:24.450Z,7.7
2023-05-14T07:10:40.664Z,7.7
2023-05-14T07:11:56.903Z,8.8
2023-05-14T07:13:13.143Z,8.3
2023-05-14T07:14:29.386Z,8.3
2023-05-14T07:15:45.625Z,8.2
2023-05-14T07:17:01.864Z,7.9
2023-05-14T07:18:18.111Z,8.9
2023-05-14T07:19:34.345Z,8.7
2023-05-14T07:20:50.596Z,8.2
2023-05-14T07:22:06.837Z,8.5
2023-05-14T07:23:22.084Z,7.9
2023-05-14T07:24:38.326Z,8.1
2023-05-14T07:25:54.575Z,11.1
2023-05-14T07:27:10.806Z,9.2
2023-05-14T07:28:27.038Z,7.7
2023-05-14T07:29:43.278Z,7.5
2023-05-14T07:30:59.530Z,7.7
2023-05-14T07:32:15.764Z,8.4
2023-05-14T07:33:31.997Z,8.6
2023-05-14T07:34:48.238Z,7.9
2023-05-14T07:36:04.478Z,7.1
2023-05-14T07:37:20.718Z,7.9
2023-05-14T07:38:36.961Z,9.6
2023-05-14T07:39:52.222Z,7.9
2023-05-14T07:42:24.700Z,7.5
2023-05-14T07:43:40.952Z,8.2
2023-05-14T07:44:57.177Z,6.3
2023-05-14T07:46:13.417Z,6.8
2023-05-14T07:47:29.654Z,6.6
2023-05-14T07:48:45.892Z,8
2023-05-14T07:50:02.141Z,8.1
2023-05-14T07:51:18.370Z,7.4
2023-05-14T07:52:34.611Z,8.7
2023-05-14T07:53:50.873Z,7.7
2023-05-14T07:55:07.092Z,7.8
2023-05-14T07:56:22.360Z,6.7
2023-05-14T07:57:38.598Z,6.8
2023-05-14T07:58:54.838Z,7.2
2023-05-14T08:01:27.306Z,6.8
2023-05-14T08:02:43.551Z,7.7
2023-05-14T08:03:59.796Z,6.9
2023-05-14T08:05:16.020Z,6.6
2023-05-14T08:06:32.266Z,6.4
2023-05-14T08:07:48.517Z,7.9
2023-05-14T08:09:04.747Z,6.9
2023-05-14T08:10:20.997Z,7.7
2023-05-14T08:11:37.235Z,6.9
2023-05-14T08:12:52.490Z,7.1
2023-05-14T08:14:08.727Z,7.1
2023-05-14T08:15:24.960Z,7.3
2023-05-14T08:16:41.202Z,8.1
2023-05-14T08:17:57.437Z,7
2023-05-14T08:19:13.674Z,6.8
2023-05-14T08:20:29.933Z,7.5
2023-05-14T08:21:46.154Z,7.6
2023-05-14T08:23:02.392Z,7.6
2023-05-14T08:24:18.632Z,9.3
2023-05-14T08:25:34.892Z,6.9
2023-05-14T08:26:51.129Z,7.4
2023-05-14T08:28:07.385Z,8.7
2023-05-14T08:29:22.614Z,7.5
2023-05-14T08:30:38.867Z,9
2023-05-14T08:31:55.092Z,6.9
2023-05-14T08:33:11.346Z,9.9
2023-05-14T08:34:27.579Z,9.9
2023-05-14T08:35:43.816Z,7
2023-05-14T08:37:00.051Z,8
2023-05-14T08:38:16.293Z,7.5
2023-05-14T08:39:32.541Z,10.7
2023-05-14T08:40:48.772Z,7.3
2023-05-14T08:42:05.026Z,8.1
2023-05-14T08:43:21.249Z,8
2023-05-14T08:44:37.500Z,7.5
2023-05-14T08:45:52.744Z,7.7
2023-05-14T08:47:09.012Z,7.3
2023-05-14T08:48:25.000Z,7.2
2023-05-14T08:49:41.473Z,7.8
2023-05-14T08:50:57.698Z,8.1
2023-05-14T08:52:13.939Z,7.9
2023-05-14T08:53:30.182Z,7.7
2023-05-14T08:54:46.455Z,10.5
2023-05-14T08:56:02.678Z,7.3
2023-05-14T08:57:18.920Z,7.5
2023-05-14T08:58:35.163Z,7.4
2023-05-14T08:59:51.381Z,7.4
2023-05-14T09:01:07.641Z,8.2
2023-05-14T09:02:22.892Z,6.7
2023-05-14T09:03:39.120Z,8.2
2023-05-14T09:04:55.366Z,8.9
2023-05-14T09:06:11.594Z,8.4
2023-05-14T09:07:27.848Z,7.1
2023-05-14T09:08:44.000Z,8.2
2023-05-14T09:10:00.321Z,7.6
2023-05-14T09:11:16.567Z,8.6
2023-05-14T09:12:32.800Z,9.4
2023-05-14T09:13:49.048Z,7.3
2023-05-14T09:15:05.276Z,8.1
2023-05-14T09:16:21.515Z,7.6
2023-05-14T09:17:37.751Z,7.7
2023-05-14T09:18:53.012Z,6.8
2023-05-14T09:20:09.265Z,6.3
2023-05-14T09:21:25.493Z,7.6
2023-05-14T09:22:41.742Z,7.9
2023-05-14T09:23:57.981Z,6.4
2023-05-14T09:25:14.225Z,7
2023-05-14T09:27:46.700Z,8
2023-05-14T09:29:02.936Z,8
2023-05-14T09:31:35.418Z,7
2023-05-14T09:32:51.664Z,7.6
2023-05-14T09:34:07.892Z,6.2
2023-05-14T09:35:23.153Z,7.4
2023-05-14T09:36:39.392Z,7.9
2023-05-14T09:37:55.628Z,7.1
2023-05-14T09:39:11.861Z,7.8
2023-05-14T09:40:28.118Z,6.4
2023-05-14T09:41:44.340Z,8.9
2023-05-14T09:43:00.580Z,6.9
2023-05-14T09:44:16.851Z,8.8
2023-05-14T09:45:33.065Z,8.2
2023-05-14T09:46:49.314Z,6.9
2023-05-14T09:48:05.546Z,7.2
2023-05-14T09:49:21.782Z,6.9
2023-05-14T09:50:38.020Z,6.6
2023-05-14T09:51:53.276Z,7.7
2023-05-14T09:53:09.538Z,6.7
2023-05-14T09:54:25.777Z,6.9
2023-05-14T09:55:41.997Z,7.5
2023-05-14T09:56:58.234Z,7.9
2023-05-14T09:58:14.476Z,7.5
2023-05-14T09:59:30.727Z,8.1
2023-05-14T10:00:46.959Z,7.8
2023-05-14T10:02:03.204Z,7.3
2023-05-14T10:03:19.432Z,7.1
2023-05-14T10:04:35.688Z,7.8
2023-05-14T10:05:51.922Z,6.7
2023-05-14T10:07:08.161Z,6.8
2023-05-14T10:08:23.422Z,8.3
2023-05-14T10:09:39.675Z,7.8
2023-05-14T10:10:55.900Z,8.1
2023-05-14T10:12:12.133Z,7.9
2023-05-14T10:13:28.368Z,7.4
2023-05-14T10:14:44.626Z,7.7
2023-05-14T10:16:00.857Z,7.5
2023-05-14T10:17:17.095Z,8.1
2023-05-14T10:18:33.333Z,8.2
2023-05-14T10:19:49.582Z,8.1
2023-05-14T10:21:05.806Z,9.6
2023-05-14T10:22:22.051Z,9.1
2023-05-14T10:23:38.287Z,7.9
2023-05-14T10:24:53.552Z,8.3
2023-05-14T10:26:09.788Z,7.9
2023-05-14T10:27:26.028Z,7.6
2023-05-14T10:28:42.263Z,9.3
2023-05-14T10:29:58.501Z,9.1
2023-05-14T10:31:14.750Z,8.4
2023-05-14T10:32:30.991Z,10.2
2023-05-14T10:33:47.228Z,8.3
2023-05-14T10:35:03.476Z,7.5
2023-05-14T10:36:19.714Z,7.7
2023-05-14T10:37:35.938Z,10.6
2023-05-14T10:38:52.187Z,7.9
2023-05-14T10:40:08.445Z,6.8
2023-05-14T10:41:23.681Z,6.5
2023-05-14T10:42:39.914Z,7.1
2023-05-14T10:43:56.165Z,7.1
2023-05-14T10:45:12.395Z,7.2
2023-05-14T10:46:28.637Z,8.4
2023-05-14T10:47:44.917Z,8
2023-05-14T10:49:00.168Z,9
2023-05-14T10:50:16.388Z,8.2
2023-05-14T10:52:48.855Z,8.6
2023-05-14T10:54:05.098Z,7.5
2023-05-14T10:55:21.339Z,8.4
2023-05-14T10:56:37.585Z,7.1
2023-05-14T10:59:10.091Z,8.5
2023-05-14T11:00:26.301Z,7.9
2023-05-14T11:01:42.537Z,7.8
2023-05-14T11:02:58.773Z,7.7
2023-05-14T11:04:15.031Z,7.6
2023-05-14T11:05:30.275Z,7.9
2023-05-14T11:06:46.521Z,7
2023-05-14T11:08:02.756Z,7.8
2023-05-14T11:09:19.006Z,7.9
2023-05-14T11:10:35.242Z,7.8
2023-05-14T11:11:51.473Z,8.9
2023-05-14T11:13:07.715Z,8.5
2023-05-14T11:14:23.951Z,8.9
2023-05-14T11:15:40.194Z,8.6
2023-05-14T11:16:56.429Z,8.1
2023-05-14T11:18:12.666Z,8.9
2023-05-14T11:19:28.909Z,7.5
2023-05-14T11:20:45.161Z,6.7
2023-05-14T11:22:00.410Z,7
2023-05-14T11:23:16.655Z,8.8
2023-05-14T11:24:32.894Z,7.2
2023-05-14T11:25:49.133Z,8.7
2023-05-14T11:27:05.375Z,8
2023-05-14T11:28:21.603Z,6.9
2023-05-14T11:29:37.857Z,8.8
2023-05-14T11:30:54.107Z,7.3
2023-05-14T11:32:10.319Z,7.9
2023-05-14T11:33:26.578Z,6.3
2023-05-14T11:34:42.800Z,6.4
2023-05-14T11:35:59.057Z,7
2023-05-14T11:37:15.287Z,6.4
2023-05-14T11:39:46.778Z,11
2023-05-14T11:41:03.027Z,7.8
2023-05-14T11:42:19.261Z,5.8
2023-05-14T11:44:51.732Z,5.9
2023-05-14T11:46:07.973Z,6.8
2023-05-14T11:47:24.210Z,6.2
2023-05-14T11:49:56.697Z,6.8
2023-05-14T11:51:11.985Z,6.2
2023-05-14T11:52:27.207Z,6.5
2023-05-14T11:53:43.449Z,6.9
2023-05-14T11:54:59.705Z,6.6
2023-05-14T11:56:15.932Z,7.8
2023-05-14T11:57:32.179Z,7.4
2023-05-14T11:58:48.406Z,6.7
2023-05-14T12:00:04.680Z,7.3
2023-05-14T12:01:20.886Z,6.8
2023-05-14T12:02:37.129Z,6.9
2023-05-14T12:03:52.425Z,6.1
2023-05-14T12:05:07.654Z,6.5
2023-05-14T12:06:23.887Z,6.3
2023-05-14T12:07:40.162Z,5.9
2023-05-14T12:08:56.378Z,6.8
2023-05-14T12:10:12.607Z,5
2023-05-14T12:11:28.877Z,4.9
2023-05-14T12:12:45.086Z,5.6
2023-05-14T12:14:01.331Z,5.4
2023-05-14T12:15:17.591Z,5
2023-05-14T12:16:33.807Z,6.9
2023-05-14T12:17:50.059Z,5.6
2023-05-14T12:19:06.284Z,4.5
2023-05-14T12:20:22.558Z,4.8
2023-05-14T12:21:37.779Z,5
2023-05-14T12:22:54.017Z,4.4
2023-05-14T12:24:10.259Z,5.5
2023-05-14T12:26:42.771Z,4.6
2023-05-14T12:27:58.975Z,5
2023-05-14T12:29:15.225Z,4.3
2023-05-14T12:30:31.467Z,4.8
2023-05-14T12:31:47.693Z,5.1
2023-05-14T12:33:03.967Z,6.5
2023-05-14T12:34:20.173Z,4.8
2023-05-14T12:35:36.447Z,5.7
2023-05-14T12:36:52.652Z,4.9
2023-05-14T12:38:07.909Z,5.2
2023-05-14T12:39:24.153Z,5.4
2023-05-14T12:40:40.405Z,4.5
2023-05-14T12:41:56.628Z,5.1
2023-05-14T12:43:12.876Z,4.3
2023-05-14T12:44:29.108Z,4.9
2023-05-14T12:45:45.349Z,4.9
2023-05-14T12:47:01.596Z,5.2
2023-05-14T12:48:17.837Z,4.9
2023-05-14T12:49:34.071Z,5.8
2023-05-14T12:50:50.309Z,5.3
2023-05-14T12:52:06.558Z,4.6
2023-05-14T12:53:22.789Z,5.2
2023-05-14T12:54:38.075Z,4.9
2023-05-14T12:55:54.292Z,4.4
2023-05-14T12:57:10.531Z,4.8
2023-05-14T12:58:26.760Z,5.4
2023-05-14T12:59:43.001Z,4.8
2023-05-14T13:00:59.249Z,4.3
2023-05-14T13:02:15.494Z,5.2
2023-05-14T13:03:31.757Z,4.1
2023-05-14T13:04:48.003Z,4.7
2023-05-14T13:06:04.213Z,4.6
2023-05-14T13:07:20.449Z,4.8
2023-05-14T13:08:36.685Z,6
2023-05-14T13:09:52.929Z,5.2
2023-05-14T13:11:08.175Z,5.4
2023-05-14T13:12:24.423Z,5.4
2023-05-14T13:13:40.670Z,5.8
2023-05-14T13:14:56.903Z,5.1
2023-05-14T13:16:13.147Z,6.4
2023-05-14T13:17:29.391Z,5.8
2023-05-14T13:18:45.626Z,5.2
2023-05-14T13:20:01.853Z,5.2
2023-05-14T13:21:18.100Z,6.9
2023-05-14T13:22:34.342Z,6.9
2023-05-14T13:23:50.578Z,5.8
2023-05-14T13:25:06.818Z,6
2023-05-14T13:26:23.068Z,5.5
2023-05-14T13:27:38.311Z,6.3
2023-05-14T13:28:54.545Z,5.8
2023-05-14T13:31:27.036Z,5.5
2023-05-14T13:32:43.271Z,6.2
2023-05-14T13:33:59.509Z,5.5
2023-05-14T13:35:15.742Z,5.4
2023-05-14T13:36:31.992Z,5.1
2023-05-14T13:37:48.239Z,5.8
2023-05-14T13:39:04.473Z,5.1
2023-05-14T13:40:20.714Z,5.7
2023-05-14T13:41:36.961Z,6.1
2023-05-14T13:42:53.197Z,6.1
2023-05-14T13:44:08.443Z,6
2023-05-14T13:45:24.688Z,7.9
2023-05-14T13:46:40.922Z,5.6
2023-05-14T13:47:57.163Z,6.3
2023-05-14T13:49:13.407Z,5.3
2023-05-14T13:50:29.636Z,5.9
2023-05-14T13:51:45.891Z,6.1
2023-05-14T13:53:02.115Z,7
2023-05-14T13:54:18.365Z,6.3
2023-05-14T13:55:34.636Z,9.6
2023-05-14T13:56:50.845Z,6
2023-05-14T13:58:07.090Z,7.5
2023-05-14T13:59:23.322Z,6.6
2023-05-14T14:00:39.688Z,6.8
2023-05-14T14:01:55.957Z,6.7
2023-05-14T14:03:12.164Z,7.2
2023-05-14T14:04:28.406Z,5.9
2023-05-14T14:05:44.648Z,7.9
2023-05-14T14:07:00.885Z,8.7
2023-05-14T14:08:17.121Z,12
2023-05-14T14:09:33.389Z,7.4
2023-05-14T14:10:49.609Z,6.8
2023-05-14T14:12:05.842Z,28.3
2023-05-14T14:13:22.087Z,21.5
2023-05-14T14:14:38.352Z,14.3
2023-05-14T14:15:54.568Z,13.7
2023-05-14T14:17:09.811Z,7.7
2023-05-14T14:18:26.046Z,18.7
2023-05-14T14:19:42.292Z,21.4
2023-05-14T14:20:58.531Z,6.9
2023-05-14T14:22:14.781Z,7.8
2023-05-14T14:23:31.017Z,8.7
2023-05-14T14:24:47.251Z,14
2023-05-14T14:26:03.494Z,29.7
2023-05-14T14:27:19.762Z,44.6
2023-05-14T14:28:35.971Z,26.7
2023-05-14T14:29:52.217Z,18
2023-05-14T14:31:08.454Z,20.7
2023-05-14T14:32:24.736Z,13.1
2023-05-14T14:33:39.948Z,13.7
2023-05-14T14:34:56.181Z,15.5
2023-05-14T14:36:12.420Z,101.6
2023-05-14T14:37:28.665Z,24.3
2023-05-14T14:38:44.904Z,128.2
2023-05-14T14:40:01.151Z,201.2
2023-05-14T14:41:17.421Z,71.6
2023-05-14T14:42:33.627Z,89.3
2023-05-14T14:43:49.906Z,27.6
2023-05-14T14:45:06.105Z,19.1
2023-05-14T14:46:22.337Z,15.1
2023-05-14T14:47:38.579Z,8.8
2023-05-14T14:48:54.822Z,7.7
2023-05-14T14:50:10.077Z,7.8
2023-05-14T14:51:26.318Z,18.9
2023-05-14T14:52:42.551Z,14.8
2023-05-14T14:53:58.799Z,77.1
2023-05-14T14:55:15.076Z,41.5
2023-05-14T14:56:31.289Z,10.1
2023-05-14T14:57:47.530Z,10.4
2023-05-14T14:59:03.751Z,22.2
2023-05-14T15:00:20.003Z,14.3
2023-05-14T15:01:36.248Z,8.9
2023-05-14T15:02:52.487Z,8.5
2023-05-14T15:04:07.742Z,8.6
2023-05-14T15:05:23.977Z,10
2023-05-14T15:06:40.255Z,14.3
2023-05-14T15:07:56.461Z,11.2
2023-05-14T15:09:12.706Z,7.9
2023-05-14T15:10:28.937Z,7.2
2023-05-14T15:11:45.172Z,7.9
2023-05-14T15:13:01.420Z,7.2
2023-05-14T15:14:17.651Z,9.7
2023-05-14T15:15:33.890Z,7.7
2023-05-14T15:16:50.141Z,25.2
2023-05-14T15:18:06.373Z,34.3
2023-05-14T15:19:22.612Z,22.1
2023-05-14T15:21:54.111Z,39
2023-05-14T15:23:10.358Z,13.1
2023-05-14T15:24:26.629Z,10.3
2023-05-14T15:25:42.833Z,15
2023-05-14T15:26:59.073Z,37.3
2023-05-14T15:28:15.321Z,31.7
2023-05-14T15:29:31.551Z,17.4
2023-05-14T15:30:47.829Z,13.3
2023-05-14T15:32:04.020Z,10.2
2023-05-14T15:33:20.318Z,6.4
2023-05-14T15:34:36.506Z,6.6
2023-05-14T15:35:52.788Z,6.4
2023-05-14T15:37:08.001Z,7.9
2023-05-14T15:38:24.235Z,6.4
2023-05-14T15:39:40.495Z,6
2023-05-14T15:40:56.724Z,8.4
2023-05-14T15:42:13.007Z,7.4
2023-05-14T15:43:29.196Z,6.8
2023-05-14T15:44:45.447Z,6.8
2023-05-14T15:46:01.689Z,5.8
2023-05-14T15:47:17.932Z,7.3
2023-05-14T15:48:34.155Z,6.4
2023-05-14T15:49:50.441Z,6.7
2023-05-14T15:51:06.646Z,7
2023-05-14T15:52:22.918Z,6
2023-05-14T15:53:38.172Z,6.2
2023-05-14T15:54:54.374Z,7.1
2023-05-14T15:56:10.618Z,35.2
2023-05-14T15:57:26.860Z,10.7
2023-05-14T15:58:43.101Z,8
2023-05-14T15:59:59.332Z,5.6
2023-05-14T16:01:15.579Z,6
2023-05-14T16:02:31.814Z,7.4
2023-05-14T16:03:48.053Z,6.8
2023-05-14T16:05:04.293Z,7
2023-05-14T16:06:20.542Z,6.3
2023-05-14T16:07:36.771Z,6.6
2023-05-14T16:08:53.057Z,6.9
2023-05-14T16:10:08.267Z,5.9
2023-05-14T16:11:24.518Z,7.5
2023-05-14T16:12:40.755Z,6.6
2023-05-14T16:13:56.988Z,6.5
2023-05-14T16:15:13.228Z,6.5
2023-05-14T16:16:29.473Z,6
2023-05-14T16:17:45.719Z,5.8
2023-05-14T16:19:01.961Z,6
2023-05-14T16:20:18.196Z,5.6
2023-05-14T16:21:34.431Z,7
2023-05-14T16:22:50.662Z,8
2023-05-14T16:24:06.914Z,6.7
2023-05-14T16:25:23.154Z,5.6
2023-05-14T16:26:38.401Z,6.5
2023-05-14T16:27:54.640Z,5.5
2023-05-14T16:29:10.000Z,6.4
2023-05-14T16:30:27.127Z,6.5
2023-05-14T16:31:43.367Z,5.9
2023-05-14T16:32:59.596Z,6.1
2023-05-14T16:34:15.852Z,6.6
2023-05-14T16:35:32.087Z,5.5
2023-05-14T16:36:48.316Z,6.1
2023-05-14T16:38:04.564Z,7.4
2023-05-14T16:39:20.801Z,6.1
2023-05-14T16:40:37.051Z,6.5
2023-05-14T16:41:53.323Z,7.2
2023-05-14T16:43:08.571Z,7.1
2023-05-14T16:44:24.784Z,6.6
2023-05-14T16:45:41.006Z,5.3
2023-05-14T16:46:57.300Z,6
2023-05-14T16:48:13.000Z,6.9
2023-05-14T16:49:29.728Z,7
2023-05-14T16:50:45.980Z,5.6
2023-05-14T16:52:02.224Z,5.6
2023-05-14T16:53:18.451Z,5.8
2023-05-14T16:54:34.695Z,6.2
2023-05-14T16:55:50.934Z,6
2023-05-14T16:57:07.170Z,6.7
2023-05-14T16:58:23.421Z,6.7
2023-05-14T16:59:38.660Z,7.5
2023-05-14T17:00:54.909Z,5.5
2023-05-14T17:02:11.146Z,6.8
2023-05-14T17:03:27.381Z,7.1
2023-05-14T17:04:43.637Z,6.7
2023-05-14T17:05:59.876Z,6.1
2023-05-14T17:07:16.098Z,6.5
2023-05-14T17:08:32.337Z,6.2
2023-05-14T17:09:48.591Z,6.3
2023-05-14T17:11:04.828Z,5
2023-05-14T17:12:21.107Z,5.5
2023-05-14T17:13:37.314Z,6.1
2023-05-14T17:14:53.596Z,6.8
2023-05-14T17:16:08.802Z,6
2023-05-14T17:17:25.041Z,5.8
2023-05-14T17:18:41.288Z,5.2
2023-05-14T17:19:57.520Z,6.1
2023-05-14T17:21:13.765Z,5.4
2023-05-14T17:22:30.003Z,5.9
2023-05-14T17:23:46.233Z,5.7
2023-05-14T17:25:02.474Z,5.6
2023-05-14T17:26:18.719Z,5.1
2023-05-14T17:27:34.961Z,5.6
2023-05-14T17:28:51.203Z,5.1
2023-05-14T17:30:07.432Z,5.5
2023-05-14T17:31:23.678Z,5.8
2023-05-14T17:32:39.917Z,5
2023-05-14T17:33:55.187Z,5.9
2023-05-14T17:35:11.425Z,5.8
2023-05-14T17:36:27.651Z,5.9
2023-05-14T17:37:43.903Z,5.3
2023-05-14T17:39:00.130Z,4.9
2023-05-14T17:40:16.386Z,5.1
2023-05-14T17:41:32.617Z,4.8
2023-05-14T17:42:48.862Z,5.6
2023-05-14T17:44:05.104Z,5
2023-05-14T17:45:21.335Z,4.9
2023-05-14T17:46:37.572Z,5.4
2023-05-14T17:47:53.808Z,5.2
2023-05-14T17:49:10.059Z,5.2